Terminal Aerodrome Forecast
Issued by NWS

Home | Current Version | Previous Version | Graphics & Text | Print | Product List | Glossary On
Versions: 1 2 3 4 5 6 7 8 9 10 11 12 13 14 15 16 17 18 19 20 21
000
FTUS43 KBIS 291700
TAFMOT
TAF
KMOT 291740Z 2918/3018 16010KT P6SM BKN090
     FM292100 20009KT P6SM BKN080
     FM292300 21005KT P6SM BKN070
     FM300000 22005KT P6SM SCT100
     FM300400 36011KT P6SM BKN015=

USA.gov is the U.S. government's official web portal to all federal, state and local government web resources and services.